createdAt,value
2023-11-12T00:00:57.214Z,98974.47
2023-11-12T00:03:23.112Z,98971.31
2023-11-12T00:05:50.881Z,98973.03
2023-11-12T00:08:18.693Z,98968.94
2023-11-12T00:10:44.781Z,98972.25
2023-11-12T00:13:10.838Z,98974.09
2023-11-12T00:15:36.638Z,98979.19
2023-11-12T00:18:02.961Z,98991.09
2023-11-12T00:20:28.856Z,98980.91
2023-11-12T00:22:55.213Z,98976.78
2023-11-12T00:25:21.107Z,98979.41
2023-11-12T00:27:47.247Z,98979.34
2023-11-12T00:30:14.497Z,98981.16
2023-11-12T00:32:40.407Z,98987.81
2023-11-12T00:35:06.883Z,98982.84
2023-11-12T00:37:33.236Z,98990.41
2023-11-12T00:39:59.026Z,98997.16
2023-11-12T00:42:24.840Z,99001.75
2023-11-12T00:44:50.659Z,98999.19
2023-11-12T00:47:16.715Z,99005.31
2023-11-12T00:49:43.022Z,99004.41
2023-11-12T00:52:09.864Z,98992.72
2023-11-12T00:54:36.680Z,98991.91
2023-11-12T00:57:02.677Z,98997.84
2023-11-12T00:59:28.515Z,99007.19
2023-11-12T01:01:54.482Z,99009.00
2023-11-12T01:04:20.326Z,99011.59
2023-11-12T01:06:46.172Z,99021.06
2023-11-12T01:09:12.166Z,99007.47
2023-11-12T01:11:38.274Z,99016.00
2023-11-12T01:14:04.355Z,99010.88
2023-11-12T01:16:30.710Z,99018.50
2023-11-12T01:18:59.366Z,99015.13
2023-11-12T01:21:27.469Z,99015.00
2023-11-12T01:23:53.319Z,99024.34
2023-11-12T01:26:19.203Z,99020.16
2023-11-12T01:28:45.047Z,99018.53
2023-11-12T01:31:11.576Z,99017.00
2023-11-12T01:33:37.368Z,99013.63
2023-11-12T01:36:03.495Z,99019.47
2023-11-12T01:38:30.582Z,99018.66
2023-11-12T01:41:03.171Z,99009.38
2023-11-12T01:43:32.846Z,99013.66
2023-11-12T01:46:00.474Z,99012.88
2023-11-12T01:48:26.489Z,99010.34
2023-11-12T01:50:52.793Z,99006.84
2023-11-12T01:53:19.305Z,99012.03
2023-11-12T01:55:47.969Z,99018.75
2023-11-12T01:58:16.548Z,99018.66
2023-11-12T02:00:44.667Z,99026.31
2023-11-12T02:03:15.548Z,99020.31
2023-11-12T02:05:42.152Z,99028.16
2023-11-12T02:08:09.200Z,99024.00
2023-11-12T02:10:38.398Z,99022.22
2023-11-12T02:13:05.165Z,99034.88
2023-11-12T02:15:31.515Z,99034.75
2023-11-12T02:17:58.280Z,99029.75
2023-11-12T02:20:24.194Z,99035.69
2023-11-12T02:22:50.028Z,99044.06
2023-11-12T02:25:16.088Z,99045.69
2023-11-12T02:27:45.240Z,99049.00
2023-11-12T02:30:11.735Z,99054.06
2023-11-12T02:32:39.299Z,99057.47
2023-11-12T02:35:07.688Z,99060.03
2023-11-12T02:37:35.749Z,99053.31
2023-11-12T02:40:02.424Z,99060.75
2023-11-12T02:42:29.828Z,99062.53
2023-11-12T02:44:57.408Z,99062.47
2023-11-12T02:47:23.241Z,99070.06
2023-11-12T02:50:28.041Z,99070.31
2023-11-12T02:52:54.552Z,99066.91
2023-11-12T02:55:20.477Z,99073.66
2023-11-12T02:57:47.222Z,99069.41
2023-11-12T03:00:14.664Z,99090.56
2023-11-12T03:02:40.790Z,99083.00
2023-11-12T03:05:08.549Z,99089.13
2023-11-12T03:07:34.394Z,99092.56
2023-11-12T03:10:00.308Z,99097.81
2023-11-12T03:12:26.175Z,99102.06
2023-11-12T03:14:51.979Z,99092.19
2023-11-12T03:17:17.815Z,99092.25
2023-11-12T03:19:44.572Z,99092.28
2023-11-12T03:22:10.919Z,99104.41
2023-11-12T03:24:36.905Z,99106.97
2023-11-12T03:27:02.733Z,99107.66
2023-11-12T03:29:28.948Z,99103.38
2023-11-12T03:31:55.273Z,99099.13
2023-11-12T03:34:22.024Z,99109.31
2023-11-12T03:36:48.124Z,99108.50
2023-11-12T03:39:14.154Z,99100.00
2023-11-12T03:41:39.967Z,99103.53
2023-11-12T03:44:06.285Z,99101.06
2023-11-12T03:46:32.171Z,99100.16
2023-11-12T03:48:57.989Z,99099.38
2023-11-12T03:51:23.836Z,99106.28
2023-11-12T03:53:49.690Z,99105.56
2023-11-12T03:56:15.489Z,99104.66
2023-11-12T03:58:41.309Z,99103.81
2023-11-12T04:01:07.182Z,99101.16
2023-11-12T04:03:33.225Z,99110.34
2023-11-12T04:05:59.143Z,99116.34
2023-11-12T04:08:24.950Z,99119.97
2023-11-12T04:10:50.753Z,99114.84
2023-11-12T04:13:17.030Z,99120.75
2023-11-12T04:15:43.360Z,99115.69
2023-11-12T04:18:09.232Z,99119.06
2023-11-12T04:20:35.077Z,99127.53
2023-11-12T04:23:00.928Z,99121.53
2023-11-12T04:25:26.698Z,99124.91
2023-11-12T04:27:52.488Z,99136.75
2023-11-12T04:30:18.851Z,99138.38
2023-11-12T04:32:45.435Z,99133.47
2023-11-12T04:35:12.207Z,99142.00
2023-11-12T04:37:39.127Z,99145.34
2023-11-12T04:40:06.764Z,99141.03
2023-11-12T04:42:33.263Z,99130.75
2023-11-12T04:44:59.165Z,99134.06
2023-11-12T04:47:25.188Z,99141.84
2023-11-12T04:49:52.400Z,99147.84
2023-11-12T04:52:18.809Z,99145.31
2023-11-12T04:54:51.029Z,99149.66
2023-11-12T04:57:17.569Z,99149.72
2023-11-12T04:59:43.380Z,99149.72
2023-11-12T05:02:12.742Z,99153.19
2023-11-12T05:04:42.061Z,99159.91
2023-11-12T05:07:08.167Z,99161.59
2023-11-12T05:09:34.211Z,99168.47
2023-11-12T05:12:00.053Z,99170.91
2023-11-12T05:14:25.875Z,99170.91
2023-11-12T05:16:51.671Z,99164.91
2023-11-12T05:19:17.482Z,99167.50
2023-11-12T05:21:46.886Z,99174.22
2023-11-12T05:24:13.370Z,99166.66
2023-11-12T05:26:40.119Z,99176.09
2023-11-12T05:29:06.388Z,99177.78
2023-11-12T05:31:33.376Z,99168.44
2023-11-12T05:34:00.167Z,99174.38
2023-11-12T05:36:26.139Z,99179.31
2023-11-12T05:38:51.969Z,99181.94
2023-11-12T05:41:17.772Z,99185.25
2023-11-12T05:43:43.597Z,99201.34
2023-11-12T05:46:09.423Z,99197.06
2023-11-12T05:48:36.049Z,99195.41
2023-11-12T05:51:02.763Z,99198.88
2023-11-12T05:53:29.024Z,99199.81
2023-11-12T05:55:55.140Z,99205.66
2023-11-12T05:58:21.752Z,99204.00
2023-11-12T06:00:47.716Z,99193.78
2023-11-12T06:03:13.710Z,99197.06
2023-11-12T06:05:40.671Z,99198.81
2023-11-12T06:08:06.504Z,99207.16
2023-11-12T06:10:32.501Z,99212.38
2023-11-12T06:12:58.379Z,99215.75
2023-11-12T06:15:27.684Z,99219.16
2023-11-12T06:17:54.194Z,99225.00
2023-11-12T06:20:20.174Z,99224.94
2023-11-12T06:22:46.064Z,99221.47
2023-11-12T06:25:12.262Z,99227.47
2023-11-12T06:27:39.092Z,99232.63
2023-11-12T06:30:05.931Z,99219.91
2023-11-12T06:32:31.797Z,99217.41
2023-11-12T06:34:57.683Z,99219.84
2023-11-12T06:37:23.465Z,99224.78
2023-11-12T06:39:49.340Z,99223.94
2023-11-12T06:42:15.254Z,99231.56
2023-11-12T06:44:41.057Z,99236.66
2023-11-12T06:47:06.924Z,99245.00
2023-11-12T06:49:32.779Z,99233.97
2023-11-12T06:51:59.137Z,99238.97
2023-11-12T06:54:27.832Z,99236.31
2023-11-12T06:56:56.599Z,99238.81
2023-11-12T06:59:23.343Z,99247.16
2023-11-12T07:01:49.280Z,99243.69
2023-11-12T07:04:15.235Z,99247.00
2023-11-12T07:06:41.187Z,99242.72
2023-11-12T07:09:08.461Z,99251.13
2023-11-12T07:11:34.354Z,99248.50
2023-11-12T07:14:00.814Z,99247.56
2023-11-12T07:16:26.835Z,99250.00
2023-11-12T07:18:54.696Z,99253.28
2023-11-12T07:21:28.528Z,99261.78
2023-11-12T07:23:54.830Z,99260.78
2023-11-12T07:26:21.127Z,99262.53
2023-11-12T07:28:47.431Z,99256.41
2023-11-12T07:31:14.714Z,99258.03
2023-11-12T07:33:40.562Z,99263.13
2023-11-12T07:36:07.124Z,99263.97
2023-11-12T07:38:33.015Z,99269.00
2023-11-12T07:40:58.803Z,99262.81
2023-11-12T07:43:25.695Z,99267.66
2023-11-12T07:45:51.583Z,99272.63
2023-11-12T07:48:17.911Z,99271.59
2023-11-12T07:50:43.738Z,99280.00
2023-11-12T07:53:09.624Z,99283.28
2023-11-12T07:55:35.459Z,99284.75
2023-11-12T07:58:01.232Z,99295.63
2023-11-12T08:00:27.090Z,99287.13
2023-11-12T08:02:52.927Z,99281.81
2023-11-12T08:05:18.968Z,99302.00
2023-11-12T08:07:45.702Z,99287.56
2023-11-12T08:10:11.652Z,99297.63
2023-11-12T08:12:38.365Z,99287.41
2023-11-12T08:15:06.701Z,99296.50
2023-11-12T08:17:32.890Z,99310.91
2023-11-12T08:19:58.777Z,99304.78
2023-11-12T08:22:24.610Z,99296.16
2023-11-12T08:24:50.451Z,99303.66
2023-11-12T08:27:16.384Z,99309.69
2023-11-12T08:29:42.273Z,99314.03
2023-11-12T08:32:08.129Z,99310.50
2023-11-12T08:34:34.331Z,99302.66
2023-11-12T08:37:00.559Z,99317.94
2023-11-12T08:39:28.343Z,99313.66
2023-11-12T08:41:54.547Z,99312.63
2023-11-12T08:44:20.375Z,99316.00
2023-11-12T08:46:46.210Z,99324.44
2023-11-12T08:49:12.685Z,99325.28
2023-11-12T08:51:38.681Z,99335.25
2023-11-12T08:54:05.817Z,99344.59
2023-11-12T08:56:32.221Z,99342.91
2023-11-12T08:58:58.612Z,99343.69
2023-11-12T09:01:24.921Z,99352.75
2023-11-12T09:03:52.627Z,99351.16
2023-11-12T09:06:19.100Z,99351.81
2023-11-12T09:08:45.833Z,99348.25
2023-11-12T09:11:15.079Z,99354.03
2023-11-12T09:13:41.902Z,99350.69
2023-11-12T09:16:07.725Z,99350.72
2023-11-12T09:18:34.288Z,99342.91
2023-11-12T09:21:00.919Z,99353.16
2023-11-12T09:23:26.756Z,99356.38
2023-11-12T09:25:52.673Z,99343.59
2023-11-12T09:28:18.555Z,99337.66
2023-11-12T09:30:54.162Z,99348.50
2023-11-12T09:33:26.705Z,99344.97
2023-11-12T09:35:52.936Z,99346.59
2023-11-12T09:38:18.719Z,99359.19
2023-11-12T09:40:44.654Z,99347.94
2023-11-12T09:43:13.093Z,99358.69
2023-11-12T09:45:44.037Z,99367.94
2023-11-12T09:48:29.621Z,99359.19
2023-11-12T09:50:56.204Z,99354.91
2023-11-12T09:53:22.519Z,99369.53
2023-11-12T09:55:48.334Z,99345.84
2023-11-12T09:58:14.719Z,99360.19
2023-11-12T10:00:40.923Z,99346.19
2023-11-12T10:03:11.143Z,99349.63
2023-11-12T10:05:37.413Z,99340.88
2023-11-12T10:08:05.757Z,99348.19
2023-11-12T10:10:32.428Z,99349.22
2023-11-12T10:12:58.930Z,99344.94
2023-11-12T10:15:27.065Z,99349.94
2023-11-12T10:17:54.570Z,99343.91
2023-11-12T10:20:24.114Z,99348.63
2023-11-12T10:22:51.958Z,99346.50
2023-11-12T10:25:44.413Z,99351.69
2023-11-12T10:28:11.870Z,99352.13
2023-11-12T10:30:42.313Z,99352.75
2023-11-12T10:33:14.969Z,99351.53
2023-11-12T10:35:40.735Z,99358.84
2023-11-12T10:38:06.843Z,99348.78
2023-11-12T10:40:32.687Z,99367.56
2023-11-12T10:43:09.920Z,99363.91
2023-11-12T10:45:36.829Z,99358.06
2023-11-12T10:48:06.276Z,99360.44
2023-11-12T10:50:33.671Z,99358.59
2023-11-12T10:53:00.644Z,99358.25
2023-11-12T10:55:26.600Z,99361.00
2023-11-12T10:57:52.914Z,99358.91
2023-11-12T11:00:20.443Z,99363.78
2023-11-12T11:02:49.373Z,99359.41
2023-11-12T11:05:18.759Z,99361.97
2023-11-12T11:07:47.804Z,99352.44
2023-11-12T11:10:14.088Z,99362.19
2023-11-12T11:12:40.352Z,99366.53
2023-11-12T11:15:40.207Z,99361.84
2023-11-12T11:18:06.902Z,99368.28
2023-11-12T11:21:11.533Z,99367.28
2023-11-12T11:23:38.505Z,99373.03
2023-11-12T11:26:29.754Z,99370.47
2023-11-12T11:29:10.193Z,99372.09
2023-11-12T11:31:42.121Z,99372.59
2023-11-12T11:34:09.090Z,99368.88
2023-11-12T11:36:35.312Z,99382.28
2023-11-12T11:39:07.231Z,99372.09
2023-11-12T11:41:48.156Z,99367.53
2023-11-12T11:44:32.230Z,99371.28
2023-11-12T11:47:18.939Z,99380.50
2023-11-12T11:49:49.508Z,99376.78
2023-11-12T11:52:28.295Z,99380.97
2023-11-12T11:54:57.195Z,99370.06
2023-11-12T11:57:27.329Z,99377.41
2023-11-12T11:59:54.358Z,99375.50
2023-11-12T12:02:22.037Z,99370.88
2023-11-12T12:04:58.073Z,99375.56
2023-11-12T12:07:27.043Z,99377.63
2023-11-12T12:09:57.629Z,99369.91
2023-11-12T12:12:25.558Z,99369.72
2023-11-12T12:14:53.110Z,99366.22
2023-11-12T12:17:19.199Z,99368.66
2023-11-12T12:19:51.897Z,99362.13
2023-11-12T12:22:27.045Z,99358.06
2023-11-12T12:24:56.515Z,99354.13
2023-11-12T12:27:22.456Z,99358.09
2023-11-12T12:29:48.962Z,99357.94
2023-11-12T12:32:18.773Z,99373.69
2023-11-12T12:34:45.554Z,99366.88
2023-11-12T12:37:19.541Z,99366.13
2023-11-12T12:39:54.832Z,99362.56
2023-11-12T12:42:24.266Z,99366.63
2023-11-12T12:44:52.175Z,99369.91
2023-11-12T12:47:37.926Z,99375.72
2023-11-12T12:50:26.181Z,99380.38
2023-11-12T12:52:53.238Z,99372.44
2023-11-12T12:55:23.691Z,99379.97
2023-11-12T12:57:52.262Z,99370.50
2023-11-12T13:00:21.453Z,99374.13
2023-11-12T13:02:48.249Z,99365.59
2023-11-12T13:05:19.513Z,99369.00
2023-11-12T13:07:50.878Z,99373.31
2023-11-12T13:10:20.770Z,99368.16
2023-11-12T13:12:48.107Z,99383.09
2023-11-12T13:15:16.257Z,99374.44
2023-11-12T13:17:42.065Z,99381.53
2023-11-12T13:20:09.586Z,99383.06
2023-11-12T13:22:36.198Z,99374.44
2023-11-12T13:25:06.137Z,99377.84
2023-11-12T13:27:32.140Z,99377.78
2023-11-12T13:29:58.530Z,99385.63
2023-11-12T13:32:29.293Z,99383.91
2023-11-12T13:34:55.512Z,99386.34
2023-11-12T13:37:21.841Z,99390.94
2023-11-12T13:39:49.412Z,99384.22
2023-11-12T13:42:17.327Z,99394.56
2023-11-12T13:44:43.428Z,99391.25
2023-11-12T13:47:09.258Z,99388.69
2023-11-12T13:49:38.649Z,99386.97
2023-11-12T13:52:06.500Z,99393.00
2023-11-12T13:54:32.411Z,99391.50
2023-11-12T13:57:00.033Z,99404.47
2023-11-12T13:59:25.895Z,99393.59
2023-11-12T14:01:52.948Z,99396.09
2023-11-12T14:04:19.327Z,99396.94
2023-11-12T14:06:45.218Z,99402.91
2023-11-12T14:09:12.569Z,99408.00
2023-11-12T14:11:41.546Z,99403.91
2023-11-12T14:14:07.917Z,99407.84
2023-11-12T14:16:37.300Z,99409.25
2023-11-12T14:19:03.935Z,99407.31
2023-11-12T14:21:30.141Z,99404.41
2023-11-12T14:23:59.487Z,99410.28
2023-11-12T14:26:25.482Z,99418.78
2023-11-12T14:28:53.145Z,99410.03
2023-11-12T14:31:21.781Z,99411.59
2023-11-12T14:33:48.031Z,99419.31
2023-11-12T14:36:13.992Z,99415.91
2023-11-12T14:38:40.940Z,99425.28
2023-11-12T14:41:08.900Z,99426.28
2023-11-12T14:43:38.382Z,99422.28
2023-11-12T14:46:04.689Z,99429.31
2023-11-12T14:48:33.855Z,99432.09
2023-11-12T14:51:01.022Z,99432.31
2023-11-12T14:53:26.867Z,99432.38
2023-11-12T14:55:55.306Z,99436.03
2023-11-12T14:58:21.298Z,99436.53
2023-11-12T15:00:47.968Z,99436.63
2023-11-12T15:03:14.112Z,99432.63
2023-11-12T15:05:39.919Z,99442.13
2023-11-12T15:08:05.758Z,99439.06
2023-11-12T15:10:31.682Z,99441.09
2023-11-12T15:12:57.566Z,99440.72
2023-11-12T15:15:23.389Z,99442.81
2023-11-12T15:17:52.078Z,99445.75
2023-11-12T15:20:17.951Z,99446.34
2023-11-12T15:22:44.301Z,99443.91
2023-11-12T15:25:14.053Z,99440.63
2023-11-12T15:27:45.368Z,99447.56
2023-11-12T15:30:17.311Z,99454.47
2023-11-12T15:32:44.387Z,99456.81
2023-11-12T15:35:10.787Z,99462.34
2023-11-12T15:37:37.642Z,99451.50
2023-11-12T15:40:14.662Z,99458.22
2023-11-12T15:42:43.146Z,99463.72
2023-11-12T15:45:10.808Z,99458.72
2023-11-12T15:47:38.271Z,99468.41
2023-11-12T15:50:06.120Z,99462.56
2023-11-12T15:52:32.316Z,99462.75
2023-11-12T15:54:59.682Z,99467.19
2023-11-12T15:57:25.749Z,99473.31
2023-11-12T15:59:52.722Z,99462.31
2023-11-12T16:02:19.573Z,99471.78
2023-11-12T16:04:45.461Z,99476.25
2023-11-12T16:07:11.307Z,99475.56
2023-11-12T16:09:37.220Z,99476.56
2023-11-12T16:12:03.327Z,99473.28
2023-11-12T16:14:29.112Z,99473.22
2023-11-12T16:16:55.307Z,99475.09
2023-11-12T16:19:21.270Z,99470.09
2023-11-12T16:21:48.877Z,99467.75
2023-11-12T16:24:16.265Z,99472.97
2023-11-12T16:26:42.450Z,99481.69
2023-11-12T16:29:09.022Z,99475.81
2023-11-12T16:31:35.559Z,99475.91
2023-11-12T16:34:03.254Z,99485.41
2023-11-12T16:36:29.366Z,99485.47
2023-11-12T16:38:56.672Z,99482.19
2023-11-12T16:41:23.547Z,99478.22
2023-11-12T16:43:49.404Z,99480.19
2023-11-12T16:46:15.733Z,99481.91
2023-11-12T16:48:42.253Z,99481.13
2023-11-12T16:51:09.452Z,99483.00
2023-11-12T16:53:36.307Z,99489.81
2023-11-12T16:56:02.753Z,99485.75
2023-11-12T16:58:28.753Z,99486.59
2023-11-12T17:00:55.466Z,99490.03
2023-11-12T17:03:22.292Z,99491.91
2023-11-12T17:05:49.027Z,99492.72
2023-11-12T17:08:14.945Z,99500.41
2023-11-12T17:10:41.026Z,99491.16
2023-11-12T17:13:07.879Z,99491.31
2023-11-12T17:15:34.247Z,99499.06
2023-11-12T17:18:00.717Z,99495.81
2023-11-12T17:20:27.123Z,99496.88
2023-11-12T17:22:52.964Z,99498.53
2023-11-12T17:25:18.803Z,99504.44
2023-11-12T17:27:44.965Z,99502.72
2023-11-12T17:30:12.054Z,99502.66
2023-11-12T17:32:38.158Z,99508.59
2023-11-12T17:35:04.921Z,99504.56
2023-11-12T17:37:32.184Z,99508.03
2023-11-12T17:39:59.012Z,99518.28
2023-11-12T17:42:24.923Z,99525.09
2023-11-12T17:44:50.753Z,99516.78
2023-11-12T17:47:16.593Z,99525.34
2023-11-12T17:49:43.501Z,99528.00
2023-11-12T17:52:11.582Z,99533.16
2023-11-12T17:54:38.177Z,99532.25
2023-11-12T17:57:04.499Z,99540.69
2023-11-12T17:59:30.777Z,99550.13
2023-11-12T18:01:56.927Z,99544.28
2023-11-12T18:04:22.918Z,99546.84
2023-11-12T18:06:49.109Z,99554.44
2023-11-12T18:09:15.596Z,99559.63
2023-11-12T18:11:42.591Z,99553.78
2023-11-12T18:14:08.839Z,99552.94
2023-11-12T18:16:35.374Z,99561.44
2023-11-12T18:19:01.306Z,99558.13
2023-11-12T18:21:29.970Z,99555.50
2023-11-12T18:23:55.919Z,99558.06
2023-11-12T18:26:22.848Z,99557.22
2023-11-12T18:28:49.227Z,99554.75
2023-11-12T18:31:24.033Z,99553.91
2023-11-12T18:33:51.142Z,99549.75
2023-11-12T18:36:17.133Z,99554.00
2023-11-12T18:38:42.965Z,99560.00
2023-11-12T18:41:08.755Z,99559.19
2023-11-12T18:43:36.076Z,99562.59
2023-11-12T18:46:04.609Z,99559.34
2023-11-12T18:48:30.881Z,99567.88
2023-11-12T18:50:57.413Z,99573.81
2023-11-12T18:53:24.161Z,99562.81
2023-11-12T18:55:50.123Z,99570.44
2023-11-12T18:58:19.149Z,99574.63
2023-11-12T19:00:45.372Z,99565.31
2023-11-12T19:03:11.491Z,99565.41
2023-11-12T19:05:38.184Z,99568.81
2023-11-12T19:08:05.162Z,99573.03
2023-11-12T19:10:31.122Z,99571.31
2023-11-12T19:12:57.100Z,99569.72
2023-11-12T19:15:23.379Z,99568.88
2023-11-12T19:17:49.974Z,99574.78
2023-11-12T19:20:16.775Z,99586.69
2023-11-12T19:22:43.387Z,99588.44
2023-11-12T19:25:14.670Z,99598.59
2023-11-12T19:27:42.016Z,99590.09
2023-11-12T19:30:14.586Z,99594.38
2023-11-12T19:32:42.778Z,99594.41
2023-11-12T19:35:09.078Z,99598.69
2023-11-12T19:37:39.127Z,99600.38
2023-11-12T19:40:07.650Z,99602.88
2023-11-12T19:42:33.666Z,99602.03
2023-11-12T19:44:59.544Z,99602.94
2023-11-12T19:47:26.961Z,99608.03
2023-11-12T19:49:53.777Z,99611.44
2023-11-12T19:52:19.707Z,99611.44
2023-11-12T19:54:45.614Z,99601.31
2023-11-12T19:57:11.509Z,99605.56
2023-11-12T19:59:37.407Z,99602.16
2023-11-12T20:02:04.746Z,99602.94
2023-11-12T20:04:30.867Z,99602.91
2023-11-12T20:06:57.052Z,99601.25
2023-11-12T20:09:23.239Z,99602.09
2023-11-12T20:11:49.910Z,99598.75
2023-11-12T20:14:17.094Z,99605.53
2023-11-12T20:16:46.169Z,99610.63
2023-11-12T20:19:14.068Z,99613.97
2023-11-12T20:21:41.378Z,99617.34
2023-11-12T20:24:12.028Z,99614.00
2023-11-12T20:26:44.963Z,99619.13
2023-11-12T20:29:13.750Z,99619.09
2023-11-12T20:31:40.555Z,99624.16
2023-11-12T20:34:06.848Z,99619.94
2023-11-12T20:36:35.023Z,99624.19
2023-11-12T20:39:04.136Z,99624.19
2023-11-12T20:41:33.261Z,99627.56
2023-11-12T20:43:59.570Z,99625.88
2023-11-12T20:46:25.604Z,99628.38
2023-11-12T20:48:56.841Z,99630.97
2023-11-12T20:51:23.571Z,99632.66
2023-11-12T20:53:49.448Z,99631.81
2023-11-12T20:56:15.272Z,99642.84
2023-11-12T20:58:41.073Z,99633.50
2023-11-12T21:01:06.941Z,99636.88
2023-11-12T21:03:33.197Z,99630.13
2023-11-12T21:06:00.353Z,99631.78
2023-11-12T21:08:26.320Z,99634.34
2023-11-12T21:10:52.375Z,99642.81
2023-11-12T21:13:19.814Z,99636.94
2023-11-12T21:15:46.134Z,99636.94
2023-11-12T21:18:12.059Z,99636.06
2023-11-12T21:20:38.538Z,99634.41
2023-11-12T21:23:04.432Z,99629.34
2023-11-12T21:25:30.264Z,99631.03
2023-11-12T21:27:56.289Z,99628.50
2023-11-12T21:30:25.387Z,99624.25
2023-11-12T21:32:57.772Z,99631.84
2023-11-12T21:35:25.370Z,99629.31
2023-11-12T21:37:51.708Z,99631.00
2023-11-12T21:40:17.650Z,99631.03
2023-11-12T21:42:45.225Z,99625.09
2023-11-12T21:45:14.534Z,99626.81
2023-11-12T21:47:40.443Z,99632.69
2023-11-12T21:50:07.322Z,99631.84
2023-11-12T21:52:34.269Z,99636.91
2023-11-12T21:55:04.294Z,99637.78
2023-11-12T21:57:30.392Z,99647.88
2023-11-12T21:59:56.410Z,99637.75
2023-11-12T22:02:23.254Z,99636.03
2023-11-12T22:04:50.561Z,99635.22
2023-11-12T22:07:20.083Z,99625.91
2023-11-12T22:09:46.920Z,99623.34
2023-11-12T22:12:12.770Z,99625.91
2023-11-12T22:14:38.595Z,99628.44
2023-11-12T22:17:04.583Z,99621.66
2023-11-12T22:19:30.456Z,99622.53
2023-11-12T22:21:59.424Z,99620.84
2023-11-12T22:24:28.268Z,99614.09
2023-11-12T22:26:57.923Z,99613.25
2023-11-12T22:29:23.740Z,99624.22
2023-11-12T22:31:49.638Z,99620.84
2023-11-12T22:34:16.406Z,99617.50
2023-11-12T22:36:42.267Z,99620.03
2023-11-12T22:39:08.298Z,99616.66
2023-11-12T22:41:34.139Z,99628.50
2023-11-12T22:44:00.234Z,99624.25
2023-11-12T22:46:26.286Z,99632.69
2023-11-12T22:48:53.006Z,99629.34
2023-11-12T22:51:19.021Z,99631.03
2023-11-12T22:53:44.947Z,99627.66
2023-11-12T22:56:10.856Z,99631.84
2023-11-12T22:58:37.908Z,99620.84
2023-11-12T23:01:04.647Z,99633.53
2023-11-12T23:03:32.880Z,99625.09
2023-11-12T23:05:59.844Z,99620.84
2023-11-12T23:08:25.884Z,99630.16
2023-11-12T23:10:54.159Z,99631.03
2023-11-12T23:13:20.114Z,99632.72
2023-11-12T23:15:46.259Z,99639.47
2023-11-12T23:18:13.214Z,99637.78
2023-11-12T23:20:39.131Z,99638.63
2023-11-12T23:23:05.668Z,99639.50
2023-11-12T23:25:31.970Z,99637.78
2023-11-12T23:27:59.171Z,99639.47
2023-11-12T23:30:28.139Z,99630.22
2023-11-12T23:32:55.072Z,99634.41
2023-11-12T23:35:21.796Z,99629.34
2023-11-12T23:37:48.078Z,99631.03
2023-11-12T23:40:17.346Z,99633.56
2023-11-12T23:42:44.107Z,99636.94
2023-11-12T23:45:10.562Z,99629.34
2023-11-12T23:47:38.017Z,99633.56
2023-11-12T23:50:04.319Z,99633.53
2023-11-12T23:52:30.100Z,99637.75
2023-11-12T23:54:55.967Z,99635.19
2023-11-12T23:57:21.802Z,99638.59
2023-11-12T23:59:48.175Z,99638.59
